Time;durP1;ratioP1;P1;durP2;ratioP2;P2;SDS_P1;SDS_P2;PMS_P1;PMS_P2;Temp;Humidity;BMP_temperature;BMP_pressure;BME280_temperature;BME280_humidity;BME280_pressure;Samples;Min_cycle;Max_cycle;Signal;HPM_P1;HPM_P2
2022/07/11 00:00:50;;;;;;;12.35;4.40;;;;;;;28.68;41.49;98897.69;5090053;28;20051;-77
2022/07/11 00:03:16;;;;;;;10.25;4.18;;;;;;;28.51;42.03;98895.44;5089648;28;20500;-76
2022/07/11 00:05:42;;;;;;;11.80;4.18;;;;;;;28.48;41.69;98896.03;5061539;28;20051;-76
2022/07/11 00:08:11;;;;;;;10.63;4.25;;;;;;;28.46;41.90;98906.41;5067702;28;20036;-77
2022/07/11 00:10:37;;;;;;;10.10;4.28;;;;;;;28.64;41.71;98905.69;5048609;28;20063;-75
2022/07/11 00:13:05;;;;;;;8.18;4.32;;;;;;;28.47;41.73;98923.66;5061627;28;20040;-76
2022/07/11 00:15:30;;;;;;;12.25;3.88;;;;;;;28.71;41.99;98916.22;5055021;28;20040;-75
2022/07/11 00:17:57;;;;;;;16.35;4.55;;;;;;;28.90;41.38;98925.28;5055333;28;20044;-75
2022/07/11 00:20:22;;;;;;;9.02;3.90;;;;;;;28.95;41.23;98919.75;5074788;28;20048;-76
2022/07/11 00:22:48;;;;;;;6.63;4.05;;;;;;;29.01;41.21;98922.13;5057782;28;20054;-75
2022/07/11 00:25:14;;;;;;;9.13;4.18;;;;;;;28.88;40.95;98928.31;5091284;28;20043;-76
2022/07/11 00:27:40;;;;;;;7.30;4.45;;;;;;;29.02;41.61;98929.22;5076375;28;20051;-76
2022/07/11 00:30:06;;;;;;;8.50;4.13;;;;;;;29.01;42.13;98930.34;5043411;28;20044;-76
2022/07/11 00:32:32;;;;;;;8.52;4.60;;;;;;;29.04;41.95;98927.00;5060383;28;20055;-76
2022/07/11 00:34:58;;;;;;;6.65;4.50;;;;;;;29.08;42.24;98925.34;5059929;28;20043;-76
2022/07/11 00:37:24;;;;;;;11.77;4.82;;;;;;;29.10;42.59;98920.38;5059652;28;20052;-76
2022/07/11 00:39:50;;;;;;;6.22;4.45;;;;;;;29.00;42.52;98917.75;5076210;28;20122;-77
2022/07/11 00:42:18;;;;;;;12.38;5.35;;;;;;;29.20;43.44;98922.97;5059753;28;21006;-77
2022/07/11 00:44:44;;;;;;;9.80;4.85;;;;;;;28.71;43.71;98917.06;5060260;28;20081;-78
2022/07/11 00:47:10;;;;;;;11.55;5.22;;;;;;;28.64;44.12;98899.38;5093972;28;20137;-77
2022/07/11 00:49:36;;;;;;;11.77;5.25;;;;;;;28.83;43.65;98908.44;5061072;28;20469;-78
2022/07/11 00:52:02;;;;;;;8.30;5.13;;;;;;;28.85;43.61;98885.16;5060768;28;20055;-79
2022/07/11 00:54:28;;;;;;;7.45;4.93;;;;;;;28.97;43.12;98885.53;5043796;28;20097;-76
2022/07/11 00:56:54;;;;;;;9.40;6.00;;;;;;;29.19;43.09;98906.84;5093596;28;20526;-76
2022/07/11 00:59:20;;;;;;;7.55;4.80;;;;;;;29.31;43.01;98899.00;5093568;28;20078;-77
2022/07/11 01:01:46;;;;;;;7.05;4.55;;;;;;;29.27;41.73;98897.97;5078170;28;20127;-79
2022/07/11 01:04:12;;;;;;;9.73;4.90;;;;;;;29.27;42.46;98890.59;5059649;28;20040;-73
2022/07/11 01:06:40;;;;;;;14.85;5.13;;;;;;;29.11;42.39;98883.72;5059485;28;20109;-75
2022/07/11 01:09:05;;;;;;;10.52;4.70;;;;;;;29.24;41.87;98885.72;5076549;28;20085;-75
2022/07/11 01:11:31;;;;;;;10.30;5.00;;;;;;;29.27;41.56;98892.50;5059539;28;20610;-75
2022/07/11 01:13:58;;;;;;;13.05;4.68;;;;;;;29.05;42.28;98887.63;5059332;28;20047;-75
2022/07/11 01:16:24;;;;;;;22.13;5.43;;;;;;;29.10;41.68;98882.09;5092761;28;20044;-75
2022/07/11 01:18:52;;;;;;;13.10;6.55;;;;;;;29.29;41.17;98887.56;5058892;28;20469;-75
2022/07/11 01:21:31;;;;;;;14.27;6.70;;;;;;;29.67;40.81;98880.94;5059072;28;20051;-74
2022/07/11 01:23:59;;;;;;;19.85;6.97;;;;;;;29.79;41.30;98877.69;5076156;28;20044;-79
2022/07/11 01:26:26;;;;;;;10.73;6.13;;;;;;;29.66;40.22;98873.03;5093111;28;20499;-75
2022/07/11 01:28:52;;;;;;;10.10;6.75;;;;;;;28.96;40.46;98842.91;5094169;28;20051;-79
2022/07/11 01:31:18;;;;;;;11.80;6.22;;;;;;;28.65;41.17;98811.66;5043712;28;20047;-78
2022/07/11 01:33:44;;;;;;;11.93;6.32;;;;;;;28.95;41.44;98854.97;5093566;28;20138;-78
2022/07/11 01:36:10;;;;;;;11.52;6.55;;;;;;;29.06;41.68;98850.19;5076157;28;20096;-77
2022/07/11 01:38:36;;;;;;;8.93;6.38;;;;;;;29.06;41.64;98833.78;5076181;28;20040;-79
2022/07/11 01:41:02;;;;;;;13.27;6.40;;;;;;;28.99;41.39;98811.41;5059200;28;20415;-78
2022/07/11 01:43:28;;;;;;;10.48;6.50;;;;;;;28.93;40.98;98810.69;5059732;28;20047;-79
2022/07/11 01:45:55;;;;;;;13.13;6.72;;;;;;;29.08;40.79;98829.63;5075969;28;20392;-79
2022/07/11 01:48:21;;;;;;;16.65;6.18;;;;;;;29.01;41.25;98829.16;5076394;28;20036;-78
2022/07/11 01:50:48;;;;;;;14.00;6.20;;;;;;;29.16;41.05;98831.69;5094203;28;20043;-78
2022/07/11 01:53:14;;;;;;;22.45;5.70;;;;;;;28.95;40.79;98832.25;5093908;28;20040;-78
2022/07/11 01:55:40;;;;;;;11.93;5.93;;;;;;;29.16;40.70;98823.47;5059260;28;20044;-77
2022/07/11 01:58:05;;;;;;;13.43;5.82;;;;;;;29.03;40.85;98823.41;5076701;28;20055;-80
2022/07/11 02:00:31;;;;;;;9.88;5.88;;;;;;;28.88;41.15;98818.97;5076425;28;20051;-77
2022/07/11 02:02:57;;;;;;;12.60;5.53;;;;;;;28.41;41.45;98826.44;5076253;28;20042;-78
2022/07/11 02:05:23;;;;;;;7.65;5.40;;;;;;;28.63;41.12;98826.72;5065671;28;20491;-78
2022/07/11 02:10:33;;;;;;;15.07;6.20;;;;;;;29.04;40.98;98825.00;5062851;28;20040;-77
2022/07/11 02:12:59;;;;;;;13.63;7.18;;;;;;;29.23;40.56;98826.63;5060045;28;20067;-76
2022/07/11 02:15:26;;;;;;;12.43;6.30;;;;;;;29.25;40.78;98831.81;5060843;28;20048;-75
2022/07/11 02:17:52;;;;;;;10.63;6.18;;;;;;;29.12;40.66;98825.16;5094499;28;20056;-79
2022/07/11 02:20:22;;;;;;;11.00;6.60;;;;;;;29.35;40.55;98839.88;5060905;28;20448;-78
2022/07/11 02:22:48;;;;;;;14.18;6.13;;;;;;;29.20;40.93;98838.16;5075174;28;20043;-78
2022/07/11 02:25:14;;;;;;;13.63;6.63;;;;;;;29.24;40.18;98852.06;5091995;28;20044;-77
2022/07/11 02:27:40;;;;;;;13.07;6.20;;;;;;;29.22;40.27;98857.84;5075098;28;20047;-78
2022/07/11 02:30:07;;;;;;;15.68;6.25;;;;;;;29.40;39.60;98864.38;5041201;28;20040;-78
2022/07/11 02:32:33;;;;;;;9.00;5.63;;;;;;;29.23;39.86;98866.88;5041392;28;20215;-78
2022/07/11 02:34:59;;;;;;;9.02;6.05;;;;;;;29.26;39.83;98858.06;5057983;28;20134;-78
2022/07/11 02:37:25;;;;;;;6.40;5.30;;;;;;;29.33;39.54;98864.78;5090981;28;20050;-75
2022/07/11 02:39:52;;;;;;;9.82;5.68;;;;;;;29.16;39.52;98841.81;5057239;28;20047;-77
2022/07/11 02:42:18;;;;;;;10.63;5.35;;;;;;;29.24;39.19;98858.38;5090832;28;20050;-77
2022/07/11 02:44:47;;;;;;;11.43;5.75;;;;;;;29.33;39.67;98858.50;5074804;28;20047;-76
2022/07/11 02:47:14;;;;;;;11.60;5.30;;;;;;;29.09;39.54;98847.63;5091499;28;20036;-75
2022/07/11 02:49:40;;;;;;;7.70;5.47;;;;;;;29.11;40.27;98845.44;5058032;28;20052;-77
2022/07/11 02:52:06;;;;;;;16.90;5.60;;;;;;;29.20;40.12;98842.84;5074261;28;20494;-78
2022/07/11 02:54:32;;;;;;;8.50;5.05;;;;;;;29.11;39.55;98822.72;5058092;28;20132;-78
2022/07/11 02:56:58;;;;;;;11.32;5.45;;;;;;;29.25;39.57;98837.28;5057672;28;20044;-75
2022/07/11 02:59:24;;;;;;;10.07;5.55;;;;;;;29.30;39.36;98846.22;5040287;28;20044;-74
2022/07/11 03:01:50;;;;;;;11.85;5.78;;;;;;;29.36;39.42;98847.78;5040828;28;20126;-75
2022/07/11 03:04:16;;;;;;;8.32;5.53;;;;;;;29.47;39.60;98842.94;5090325;28;20052;-75
2022/07/11 03:06:42;;;;;;;15.90;6.20;;;;;;;29.38;38.96;98840.06;5090700;28;20044;-77
2022/07/11 03:09:08;;;;;;;6.55;5.45;;;;;;;29.42;39.15;98838.38;5056656;28;20416;-78
2022/07/11 03:11:34;;;;;;;12.43;5.90;;;;;;;29.50;39.08;98854.09;5090722;28;20070;-74
2022/07/11 03:14:03;;;;;;;7.45;5.75;;;;;;;29.37;39.05;98822.03;5056305;28;20449;-73
2022/07/11 03:16:30;;;;;;;7.88;5.68;;;;;;;29.66;39.38;98851.13;5091661;28;20051;-75
2022/07/11 03:18:56;;;;;;;9.98;5.63;;;;;;;29.56;38.87;98833.75;5089951;28;20138;-75
2022/07/11 03:21:24;;;;;;;11.50;5.38;;;;;;;29.47;38.78;98840.19;5060675;28;20074;-75
2022/07/11 03:23:50;;;;;;;10.30;5.05;;;;;;;29.65;38.89;98841.28;5060151;28;20403;-74
2022/07/11 03:26:16;;;;;;;13.80;5.00;;;;;;;29.75;38.79;98839.19;5043482;28;20130;-75
2022/07/11 03:28:42;;;;;;;6.95;5.18;;;;;;;29.57;38.88;98826.31;5093578;28;20483;-75
2022/07/11 03:31:07;;;;;;;14.38;5.45;;;;;;;29.42;38.81;98840.28;5093294;28;20039;-75
2022/07/11 03:33:33;;;;;;;12.05;5.18;;;;;;;29.60;38.98;98834.75;5059577;28;20495;-75
2022/07/11 03:35:59;;;;;;;10.85;5.60;;;;;;;29.72;38.70;98833.50;5093410;28;20039;-75
2022/07/11 03:38:25;;;;;;;11.57;5.75;;;;;;;29.78;38.70;98838.59;5060121;28;20048;-76
2022/07/11 03:40:53;;;;;;;11.88;5.25;;;;;;;29.79;38.47;98844.84;5076874;28;20062;-74
2022/07/11 03:43:20;;;;;;;12.65;5.85;;;;;;;29.68;38.58;98837.97;5060509;28;20075;-77
2022/07/11 03:45:46;;;;;;;10.73;5.70;;;;;;;29.85;38.50;98838.16;5059549;28;20499;-75
2022/07/11 03:48:12;;;;;;;7.18;5.40;;;;;;;29.86;38.18;98839.81;5059769;28;20111;-75
2022/07/11 03:50:38;;;;;;;8.93;5.28;;;;;;;29.96;37.97;98837.69;5093037;28;20051;-74
2022/07/11 03:53:04;;;;;;;10.50;5.18;;;;;;;29.83;37.88;98830.25;5058610;28;20074;-76
2022/07/11 03:55:30;;;;;;;12.10;5.70;;;;;;;29.85;37.10;98851.84;5059654;28;20036;-74
2022/07/11 03:57:56;;;;;;;8.82;5.35;;;;;;;29.55;38.22;98840.31;5075902;28;20047;-76
2022/07/11 04:00:22;;;;;;;10.50;5.13;;;;;;;29.49;38.34;98829.78;5076676;28;20066;-76
2022/07/11 04:02:48;;;;;;;8.32;5.15;;;;;;;29.92;37.95;98833.94;5076827;28;20056;-78
2022/07/11 04:05:14;;;;;;;7.70;5.32;;;;;;;30.02;37.08;98832.91;5043637;28;20518;-77
2022/07/11 04:07:40;;;;;;;8.25;5.50;;;;;;;30.13;37.18;98842.56;5042899;28;20040;-77
2022/07/11 04:10:06;;;;;;;11.35;5.50;;;;;;;30.27;36.81;98837.94;5059391;28;20039;-77
2022/07/11 04:12:32;;;;;;;13.95;5.07;;;;;;;30.34;37.21;98835.56;5093009;28;20579;-76
2022/07/11 04:14:58;;;;;;;12.25;5.93;;;;;;;30.23;37.65;98845.94;5043328;28;20039;-77
2022/07/11 04:17:24;;;;;;;12.40;6.05;;;;;;;30.46;37.09;98844.13;5043843;28;20398;-76
2022/07/11 04:19:50;;;;;;;14.30;6.15;;;;;;;30.52;36.69;98853.84;5078972;28;20452;-76
2022/07/11 04:22:16;;;;;;;11.13;5.93;;;;;;;30.41;36.98;98827.78;5096030;28;20050;-77
2022/07/11 04:24:42;;;;;;;11.18;5.80;;;;;;;30.74;36.54;98841.00;5094015;28;20432;-76
2022/07/11 04:27:08;;;;;;;14.38;5.63;;;;;;;30.83;36.32;98843.88;5060424;28;20537;-75
2022/07/11 04:29:34;;;;;;;8.80;5.10;;;;;;;30.60;36.34;98844.91;5059556;28;20067;-76
2022/07/11 04:32:00;;;;;;;9.77;4.88;;;;;;;30.66;36.28;98851.91;5092969;28;20052;-75
2022/07/11 04:34:25;;;;;;;9.63;5.47;;;;;;;30.74;36.27;98840.19;5093796;28;20552;-75
2022/07/11 04:36:51;;;;;;;11.85;5.47;;;;;;;30.76;36.43;98851.69;5075996;28;20092;-74
2022/07/11 04:39:17;;;;;;;13.18;5.38;;;;;;;31.08;35.61;98837.78;5059534;28;20478;-76
2022/07/11 04:41:43;;;;;;;12.57;4.55;;;;;;;31.13;35.15;98840.41;5059266;28;20043;-75
2022/07/11 04:44:11;;;;;;;13.45;5.35;;;;;;;31.08;35.00;98852.31;5060260;28;20036;-77
2022/07/11 04:46:38;;;;;;;7.80;4.22;;;;;;;31.30;35.02;98834.28;5077432;28;20047;-77
2022/07/11 04:49:06;;;;;;;13.57;5.07;;;;;;;31.29;35.52;98835.38;5080750;28;20121;-77
2022/07/11 04:51:32;;;;;;;10.23;4.70;;;;;;;31.57;34.52;98826.72;5067008;28;20048;-75
2022/07/11 04:53:57;;;;;;;15.77;4.90;;;;;;;31.72;34.74;98834.53;5053202;28;20337;-74
2022/07/11 04:56:23;;;;;;;12.82;5.28;;;;;;;31.80;34.59;98819.25;5054482;28;20507;-74
2022/07/11 04:58:49;;;;;;;10.52;4.47;;;;;;;31.92;34.79;98820.28;5071713;28;20048;-74
2022/07/11 05:01:15;;;;;;;8.85;4.30;;;;;;;31.75;34.47;98813.91;5054607;28;20068;-76
2022/07/11 05:03:41;;;;;;;7.63;4.57;;;;;;;31.89;34.25;98822.88;5038881;28;20452;-76
2022/07/11 05:06:06;;;;;;;11.90;4.90;;;;;;;31.79;34.02;98817.63;5074791;28;20800;-77
2022/07/11 05:08:36;;;;;;;9.60;4.45;;;;;;;31.91;34.57;98809.63;5075471;28;20527;-75
2022/07/11 05:11:05;;;;;;;9.45;4.40;;;;;;;31.90;33.85;98800.59;5075301;28;20805;-76
2022/07/11 05:13:31;;;;;;;8.05;3.70;;;;;;;32.14;33.32;98798.25;5040752;28;20032;-75
2022/07/11 05:15:57;;;;;;;13.73;4.55;;;;;;;32.31;33.68;98802.97;5058236;28;20051;-75
2022/07/11 05:18:23;;;;;;;7.53;3.63;;;;;;;32.22;33.28;98791.16;5058958;28;20052;-75
2022/07/11 05:20:48;;;;;;;7.85;4.13;;;;;;;32.52;33.08;98810.31;5068666;28;20063;-75
2022/07/11 05:23:15;;;;;;;9.65;4.30;;;;;;;32.74;32.31;98798.38;5098260;28;20048;-75
2022/07/11 05:25:40;;;;;;;14.68;4.15;;;;;;;32.62;32.46;98799.03;5065229;28;20024;-74
2022/07/11 05:28:06;;;;;;;15.68;5.22;;;;;;;32.84;32.46;98795.34;5092112;28;20043;-76
2022/07/11 05:30:32;;;;;;;12.85;4.15;;;;;;;32.58;32.84;98789.00;5059751;28;20112;-75
2022/07/11 05:32:58;;;;;;;9.73;4.90;;;;;;;32.79;32.67;98794.66;5058564;28;20040;-75
2022/07/11 05:35:25;;;;;;;11.68;4.55;;;;;;;32.79;32.88;98798.25;5074299;28;20131;-75
2022/07/11 05:37:51;;;;;;;11.00;4.25;;;;;;;32.93;32.94;98787.91;5058828;28;20069;-76
2022/07/11 05:40:20;;;;;;;11.93;4.22;;;;;;;32.78;32.89;98784.81;5055043;28;20039;-76
2022/07/11 05:42:45;;;;;;;7.85;4.05;;;;;;;32.78;33.04;98787.56;5072048;28;20043;-75
2022/07/11 05:45:11;;;;;;;11.68;3.97;;;;;;;32.97;32.55;98796.34;5050143;28;20036;-74
2022/07/11 05:47:37;;;;;;;8.18;3.78;;;;;;;32.84;32.51;98789.00;5068902;28;20050;-75
2022/07/11 05:50:04;;;;;;;9.65;4.35;;;;;;;33.33;31.92;98781.06;5040843;28;20042;-76
2022/07/11 05:52:30;;;;;;;6.20;3.55;;;;;;;33.66;31.24;98779.38;5082792;28;20166;-76
2022/07/11 05:54:55;;;;;;;11.15;3.38;;;;;;;34.13;31.01;98772.75;5032095;28;20075;-75
2022/07/11 05:57:22;;;;;;;11.82;3.72;;;;;;;33.73;30.05;98773.38;5055850;28;20671;-74
2022/07/11 05:59:48;;;;;;;9.70;4.30;;;;;;;33.93;30.47;98776.25;5084407;28;20044;-72
2022/07/11 06:02:14;;;;;;;5.55;3.83;;;;;;;34.23;29.57;98777.03;5090521;28;20048;-73
2022/07/11 06:04:39;;;;;;;13.35;3.67;;;;;;;34.49;29.84;98763.94;5066815;28;20100;-73
2022/07/11 06:07:05;;;;;;;5.53;3.20;;;;;;;34.71;29.38;98771.06;5082654;28;20206;-72
2022/07/11 06:09:31;;;;;;;6.93;3.15;;;;;;;34.60;29.05;98758.84;5064451;28;20127;-73
2022/07/11 06:11:57;;;;;;;9.77;3.25;;;;;;;35.05;28.54;98770.81;5088013;28;20044;-72
2022/07/11 06:14:24;;;;;;;10.25;3.95;;;;;;;35.15;28.28;98753.84;5092314;28;20584;-72
2022/07/11 06:16:50;;;;;;;17.75;4.47;;;;;;;35.69;27.90;98761.72;5097489;28;20112;-71
2022/07/11 06:19:16;;;;;;;15.85;4.07;;;;;;;35.77;27.46;98764.72;5081654;28;20139;-75
2022/07/11 06:21:42;;;;;;;16.70;4.05;;;;;;;35.97;27.30;98769.38;5084727;28;20568;-73
2022/07/11 06:24:08;;;;;;;14.60;4.22;;;;;;;36.15;26.47;98766.00;5083285;28;20035;-75
2022/07/11 06:26:34;;;;;;;9.45;3.60;;;;;;;36.24;26.00;98768.69;5081731;28;20040;-75
2022/07/11 06:29:00;;;;;;;10.02;3.58;;;;;;;36.21;26.13;98758.31;5041788;28;20118;-75
2022/07/11 06:31:26;;;;;;;17.42;3.50;;;;;;;36.15;26.55;98754.94;5046422;28;20050;-74
2022/07/11 06:33:56;;;;;;;14.43;4.15;;;;;;;36.28;26.55;98751.03;5048725;28;20040;-73
2022/07/11 06:36:24;;;;;;;6.32;3.15;;;;;;;36.28;26.52;98742.75;5056391;28;20039;-74
2022/07/11 06:38:51;;;;;;;6.97;3.42;;;;;;;36.29;26.80;98725.00;5072155;28;20044;-73
2022/07/11 06:41:16;;;;;;;7.18;3.33;;;;;;;36.51;25.81;98749.41;5061016;28;20126;-73
2022/07/11 06:43:42;;;;;;;11.95;3.75;;;;;;;36.45;26.43;98712.09;5089353;28;20173;-74
2022/07/11 06:46:08;;;;;;;12.73;3.40;;;;;;;36.86;25.82;98742.19;5060889;28;20189;-74
2022/07/11 06:48:34;;;;;;;9.45;3.58;;;;;;;37.19;25.15;98747.47;5060824;28;20052;-75
2022/07/11 06:51:00;;;;;;;12.65;3.70;;;;;;;37.25;25.18;98743.31;5055993;28;20123;-74
2022/07/11 06:53:26;;;;;;;16.65;3.42;;;;;;;37.41;24.62;98733.06;5046671;28;20126;-74
2022/07/11 06:55:51;;;;;;;10.15;3.20;;;;;;;36.98;25.40;98727.50;5055519;28;20526;-73
2022/07/11 06:58:32;;;;;;;10.27;3.30;;;;;;;37.07;24.79;98739.22;5053428;28;20115;-74
2022/07/11 07:01:05;;;;;;;11.73;3.97;;;;;;;37.47;24.36;98742.75;5071148;28;20040;-73
2022/07/11 07:03:32;;;;;;;13.15;4.03;;;;;;;37.67;24.24;98711.22;5070886;28;20054;-74
2022/07/11 07:05:58;;;;;;;15.23;4.05;;;;;;;37.82;24.07;98723.44;5055359;28;20080;-74
2022/07/11 07:08:25;;;;;;;14.88;3.53;;;;;;;38.19;24.14;98722.81;5071998;28;20044;-74
2022/07/11 07:10:53;;;;;;;15.13;4.10;;;;;;;38.50;23.40;98725.47;5055285;28;20043;-74
2022/07/11 07:13:23;;;;;;;14.32;4.05;;;;;;;38.57;23.17;98727.63;5076425;28;20040;-74
2022/07/11 07:15:49;;;;;;;15.40;4.10;;;;;;;38.87;22.72;98730.66;5091752;28;20043;-75
2022/07/11 07:18:15;;;;;;;8.73;4.05;;;;;;;39.00;23.15;98738.50;5088968;28;20138;-72
2022/07/11 07:20:41;;;;;;;14.38;3.95;;;;;;;39.19;22.72;98729.34;5072210;28;20159;-74
2022/07/11 07:23:08;;;;;;;6.72;3.25;;;;;;;39.21;21.98;98735.34;5054742;28;20087;-73
2022/07/11 07:25:34;;;;;;;9.13;4.00;;;;;;;39.23;22.25;98735.78;5054766;28;20079;-73
2022/07/11 07:28:00;;;;;;;9.75;3.33;;;;;;;39.35;22.09;98735.63;5055181;28;20051;-74
2022/07/11 07:30:27;;;;;;;12.82;3.58;;;;;;;39.84;22.06;98730.97;5054622;28;20040;-73
2022/07/11 07:32:52;;;;;;;9.45;3.38;;;;;;;40.35;21.50;98734.97;5066096;28;20074;-74
2022/07/11 07:35:19;;;;;;;36.22;4.18;;;;;;;41.14;20.55;98728.09;5074468;28;20138;-74
2022/07/11 07:37:47;;;;;;;14.45;3.45;;;;;;;41.20;20.47;98726.56;5041769;28;20519;-74
2022/07/11 07:40:13;;;;;;;8.88;3.10;;;;;;;40.47;20.58;98714.47;5086648;28;20052;-74
2022/07/11 07:42:39;;;;;;;12.02;3.20;;;;;;;41.56;19.54;98728.56;5052242;28;20092;-73
2022/07/11 07:45:05;;;;;;;8.90;2.90;;;;;;;41.47;18.96;98727.25;5056921;28;20495;-74
2022/07/11 07:47:30;;;;;;;8.57;3.08;;;;;;;42.64;18.41;98729.81;5049858;28;20067;-73
2022/07/11 07:49:56;;;;;;;8.00;2.92;;;;;;;44.65;16.52;98720.50;5089311;28;20131;-75
2022/07/11 07:52:22;;;;;;;9.00;2.45;;;;;;;45.92;15.10;98720.59;5082268;28;20043;-75
2022/07/11 07:54:48;;;;;;;7.75;2.58;;;;;;;47.53;13.53;98715.09;5057954;28;20046;-76
2022/07/11 07:57:13;;;;;;;11.75;2.65;;;;;;;48.22;13.08;98711.53;5064324;28;20039;-74
2022/07/11 07:59:39;;;;;;;6.65;2.50;;;;;;;48.44;12.33;98707.91;5038879;28;20040;-75
2022/07/11 08:02:05;;;;;;;6.05;2.38;;;;;;;47.18;13.40;98716.38;5026795;28;20051;-74
2022/07/11 08:04:31;;;;;;;5.63;2.50;;;;;;;47.26;13.23;98711.47;5064996;28;20135;-74
2022/07/11 08:06:59;;;;;;;7.10;2.55;;;;;;;48.34;12.39;98703.28;5062343;28;20127;-74
2022/07/11 08:09:25;;;;;;;6.60;2.63;;;;;;;48.73;12.12;98689.19;5054475;28;20058;-74
2022/07/11 08:11:51;;;;;;;5.63;2.22;;;;;;;49.15;11.83;98698.78;5070559;28;20047;-74
2022/07/11 08:14:17;;;;;;;5.78;2.08;;;;;;;49.77;10.90;98737.28;5039436;28;20040;-74
2022/07/11 08:16:44;;;;;;;2.70;1.95;;;;;;;47.67;12.10;98697.22;5089605;28;20097;-74
2022/07/11 08:19:11;;;;;;;5.15;2.60;;;;;;;45.74;13.15;98691.84;5067330;28;20056;-74
2022/07/11 08:21:37;;;;;;;6.20;2.50;;;;;;;45.42;14.21;98677.28;5042862;28;20072;-79
2022/07/11 08:24:03;;;;;;;5.07;2.00;;;;;;;43.64;15.34;98680.19;5069322;28;20638;-75
2022/07/11 08:26:29;;;;;;;7.85;2.53;;;;;;;42.23;17.11;98681.66;5053840;28;20036;-74
2022/07/11 08:28:55;;;;;;;11.05;2.40;;;;;;;42.07;17.57;98680.38;5021722;28;20040;-74
2022/07/11 08:31:21;;;;;;;11.98;2.53;;;;;;;42.73;17.04;98666.81;5021766;28;20411;-74
2022/07/11 08:33:46;;;;;;;7.38;2.55;;;;;;;43.35;16.52;98677.78;5038976;28;20048;-74
2022/07/11 08:36:12;;;;;;;5.28;2.30;;;;;;;45.78;14.47;98675.81;5090952;28;20044;-75
2022/07/11 08:38:39;;;;;;;9.60;2.60;;;;;;;47.42;12.68;98695.56;5075000;28;20066;-75
2022/07/11 08:41:05;;;;;;;12.68;2.67;;;;;;;49.49;11.57;98693.56;5057398;28;20040;-73
2022/07/11 08:43:31;;;;;;;13.88;2.40;;;;;;;49.09;11.04;98689.25;5040439;28;20052;-74
2022/07/11 08:45:57;;;;;;;10.15;2.60;;;;;;;46.30;12.98;98676.50;5053462;28;20044;-75
2022/07/11 08:48:23;;;;;;;6.90;2.40;;;;;;;44.38;14.39;98674.56;5074236;28;20052;-74
2022/07/11 08:50:50;;;;;;;7.18;2.50;;;;;;;42.71;16.25;98652.44;5074802;28;20036;-76
2022/07/11 08:53:15;;;;;;;11.00;2.92;;;;;;;41.53;17.90;98667.97;5040292;28;20052;-75
2022/07/11 08:55:41;;;;;;;7.55;2.78;;;;;;;41.19;17.87;98657.28;5049187;28;20078;-75
2022/07/11 08:58:08;;;;;;;8.60;2.75;;;;;;;42.83;16.38;98670.81;5073402;28;20534;-75
2022/07/11 09:00:35;;;;;;;7.80;2.97;;;;;;;44.10;15.94;98678.19;5074591;28;20072;-75
2022/07/11 09:03:02;;;;;;;14.68;3.83;;;;;;;46.03;14.39;98665.94;5077153;28;20041;-76
2022/07/11 09:05:28;;;;;;;9.20;2.78;;;;;;;47.38;12.64;98654.63;5092420;28;20048;-76
2022/07/11 09:07:54;;;;;;;8.77;2.70;;;;;;;48.66;12.11;98668.81;5073969;28;20055;-74
2022/07/11 09:10:20;;;;;;;19.23;3.15;;;;;;;48.54;11.59;98677.91;5073845;28;20039;-74
2022/07/11 09:13:10;;;;;;;8.07;2.78;;;;;;;49.19;10.57;98685.41;5073187;28;20044;-74
2022/07/11 09:15:45;;;;;;;8.48;2.30;;;;;;;50.16;9.85;98658.00;5071379;28;20040;-75
2022/07/11 09:18:26;;;;;;;8.30;2.10;;;;;;;48.87;10.62;98659.91;5074715;28;20150;-74
2022/07/11 09:26:23;;;;;;;5.82;2.60;;;;;;;53.87;7.81;98668.84;5075495;28;20511;-76
2022/07/11 09:29:09;;;;;;;5.45;2.25;;;;;;;55.74;6.68;98656.03;5075406;28;20156;-75
2022/07/11 09:31:36;;;;;;;5.45;2.05;;;;;;;55.22;7.01;98662.28;5087396;28;20036;-75
2022/07/11 09:34:13;;;;;;;4.25;1.73;;;;;;;55.06;6.47;98644.75;5099516;28;20031;-75
2022/07/11 09:36:43;;;;;;;9.90;1.98;;;;;;;52.72;7.45;98663.78;5073779;28;20055;-75
2022/07/11 09:39:14;;;;;;;10.75;2.10;;;;;;;50.75;8.43;98655.50;5047886;28;20139;-75
2022/07/11 09:41:40;;;;;;;5.60;2.53;;;;;;;49.70;9.78;98614.00;5046051;28;20043;-73
2022/07/11 09:44:12;;;;;;;3.67;2.05;;;;;;;49.17;9.60;98620.16;5065046;28;20392;-74
2022/07/11 09:46:39;;;;;;;4.55;2.20;;;;;;;50.55;9.19;98615.28;5101421;28;20130;-74
2022/07/11 09:49:06;;;;;;;8.35;2.15;;;;;;;52.33;7.85;98619.09;5101130;28;20046;-75
2022/07/11 09:51:33;;;;;;;6.72;2.20;;;;;;;53.83;6.88;98596.38;5100122;28;20040;-76
2022/07/11 09:54:00;;;;;;;7.53;2.00;;;;;;;54.28;6.58;98617.13;5104950;28;20059;-72
2022/07/11 09:56:32;;;;;;;3.28;1.77;;;;;;;53.35;6.85;98607.34;5063753;28;20046;-73
2022/07/11 09:58:59;;;;;;;8.85;1.90;;;;;;;53.47;7.05;98630.41;5099133;28;20044;-74
2022/07/11 10:01:26;;;;;;;4.43;2.10;;;;;;;54.17;6.96;98627.34;5065420;28;20036;-73
2022/07/11 10:03:52;;;;;;;6.50;1.83;;;;;;;55.24;6.29;98585.69;5101274;28;20130;-73
2022/07/11 10:06:18;;;;;;;8.13;2.00;;;;;;;53.13;7.27;98617.97;5108503;28;20058;-70
2022/07/11 10:08:43;;;;;;;9.23;1.90;;;;;;;54.40;6.29;98607.63;5079876;28;20051;-71
2022/07/11 10:11:12;;;;;;;2.92;1.90;;;;;;;56.13;5.79;98614.84;5088367;28;20040;-72
2022/07/11 10:13:38;;;;;;;6.55;1.98;;;;;;;56.07;5.55;98585.44;5088928;28;20500;-73
2022/07/11 10:16:13;;;;;;;8.07;2.28;;;;;;;54.32;6.04;98609.19;5062355;28;20518;-72
2022/07/11 10:18:44;;;;;;;10.27;1.95;;;;;;;53.64;6.52;98597.66;5087278;28;20056;-72
2022/07/11 10:21:15;;;;;;;10.00;2.00;;;;;;;54.27;6.66;98598.47;5088815;28;20566;-73
2022/07/11 10:23:56;;;;;;;4.85;2.13;;;;;;;55.51;6.10;98628.28;5070350;28;20035;-72
2022/07/11 10:26:47;;;;;;;9.60;2.00;;;;;;;54.84;5.69;98608.00;5073063;28;20040;-74
2022/07/11 10:29:21;;;;;;;13.60;2.30;;;;;;;53.16;6.60;98610.59;5037691;28;20058;-72
2022/07/11 10:31:59;;;;;;;6.25;2.17;;;;;;;50.99;7.59;98602.22;5075340;28;20116;-72
2022/07/11 10:34:27;;;;;;;5.70;2.00;;;;;;;49.56;8.79;98594.59;5070908;28;20415;-72
2022/07/11 10:36:59;;;;;;;9.27;2.22;;;;;;;50.68;8.76;98592.69;5070908;28;20040;-73
2022/07/11 10:39:28;;;;;;;7.00;2.35;;;;;;;50.94;8.53;98603.59;5054175;28;20051;-72
2022/07/11 10:41:54;;;;;;;;;;;;;;;52.10;7.94;98596.06;5056496;28;20040;-73
2022/07/11 10:44:21;;;;;;;6.82;1.83;;;;;;;51.98;7.93;98601.31;5040103;28;19919;-73
2022/07/11 10:46:47;;;;;;;15.30;2.17;;;;;;;52.14;7.86;98593.88;5040085;28;20044;-72
2022/07/11 10:49:15;;;;;;;5.97;2.15;;;;;;;51.42;8.17;98605.28;5072477;28;20549;-72
2022/07/11 10:51:44;;;;;;;5.85;2.40;;;;;;;49.43;9.30;98592.91;5073448;28;20036;-71
2022/07/11 10:54:19;;;;;;;2.33;1.90;;;;;;;49.08;9.31;98600.22;5094361;28;20039;-70
2022/07/11 10:57:23;;;;;;;7.10;2.00;;;;;;;48.14;10.57;98586.94;5099556;28;20044;-70
2022/07/11 11:00:02;;;;;;;9.75;2.30;;;;;;;48.66;9.56;98593.50;5086259;28;20138;-72
2022/07/11 11:02:30;;;;;;;9.07;2.33;;;;;;;49.10;9.63;98623.94;5066553;28;20043;-72
2022/07/11 11:04:58;;;;;;;11.45;2.58;;;;;;;48.48;9.85;98583.81;5090536;28;20048;-70
2022/07/11 11:07:34;;;;;;;6.03;3.42;;;;;;;48.13;10.75;98593.81;5073089;28;20040;-73
2022/07/11 11:10:02;;;;;;;8.95;2.33;;;;;;;48.88;9.74;98586.16;5072296;28;20139;-71
2022/07/11 11:12:47;;;;;;;;;;;;;;;47.64;10.72;98601.13;5089888;28;20047;-72
2022/07/11 11:15:41;;;;;;;8.25;2.45;;;;;;;45.88;11.90;98574.66;5055340;28;20046;-72
2022/07/11 11:18:25;;;;;;;5.03;2.30;;;;;;;44.99;12.43;98631.84;5072353;28;20067;-71
2022/07/11 11:21:02;;;;;;;11.90;2.35;;;;;;;43.08;13.81;98576.66;5080574;28;20149;-72
2022/07/11 11:23:35;;;;;;;14.43;2.50;;;;;;;42.28;14.81;98591.97;5076617;28;20165;-72
2022/07/11 11:26:10;;;;;;;8.10;2.50;;;;;;;42.75;14.65;98575.03;5098411;28;20036;-71
2022/07/11 11:28:37;;;;;;;6.97;2.55;;;;;;;42.57;14.36;98560.19;5098363;28;20057;-72
2022/07/11 11:31:05;;;;;;;13.38;3.10;;;;;;;41.87;15.07;98607.28;5078768;28;20036;-71
2022/07/11 11:33:36;;;;;;;4.50;2.35;;;;;;;41.36;15.60;98593.34;5080571;28;20046;-73
2022/07/11 11:36:09;;;;;;;8.77;2.50;;;;;;;40.98;15.79;98601.31;5061916;28;20093;-72
2022/07/11 11:38:40;;;;;;;16.38;2.80;;;;;;;41.10;16.27;98568.44;5080177;28;20109;-72
2022/07/11 11:41:06;;;;;;;11.45;2.75;;;;;;;40.77;16.30;98592.75;5070053;28;20127;-72